• Join FlightAware (Why Join?)
  • Login
  • US Flag 
10:39AM EDT


 

Airport Tracker/Info


-or-


 

Live Flight TrackerFlight Track Log ✈ N679EA ✈ 04-Oct-2013 ✈ KCHS - KAVL

Flight Track Log - Related Links

Times and Time Zones

All times are in EDT time to prevent confusion due to time zone crossing. See the N679EA flight status page for this flight to view local times or setup timezone preferences in your user account.

Time Position Orientation Groundspeed Altitude Reporting Facility
EDT Latitude Longitude Course Direction KTS MPH feet Rate Location/Type
04:15PM 33.0540 -80.1880 320° Northwest  Level Estimated
04:16PM 33.0837 -80.2195 318° Northwest  Level FlightAware Approximate
04:17PM 33.1134 -80.2509 318° Northwest  Level FlightAware Approximate
04:18PM 33.1431 -80.2823 318° Northwest  Level FlightAware Approximate
04:19PM 33.1742 -80.3119 317° Northwest  Level Estimated
04:20PM 33.2034 -80.3441 317° Northwest  Level FlightAware Approximate
04:21PM 33.2325 -80.3764 317° Northwest  Level FlightAware Approximate
04:22PM 33.2617 -80.4086 317° Northwest  Level FlightAware Approximate
04:23PM 33.2908 -80.4409 317° Northwest  Level FlightAware Approximate
04:24PM 33.3199 -80.4732 317° Northwest  Level FlightAware Approximate
04:25PM 33.3490 -80.5055 317° Northwest  Level FlightAware Approximate
04:26PM 33.3782 -80.5378 317° Northwest  Level FlightAware Approximate
04:27PM 33.4073 -80.5702 317° Northwest  Level FlightAware Approximate
04:28PM 33.4364 -80.6026 317° Northwest  Level FlightAware Approximate
04:29PM 33.4676 -80.6320 319° Northwest  Level Estimated
04:30PM 33.4970 -80.6640 318° Northwest  Level FlightAware Approximate
04:31PM 33.5265 -80.6960 318° Northwest  Level FlightAware Approximate
04:32PM 33.5559 -80.7280 318° Northwest  Level FlightAware Approximate
04:33PM 33.5853 -80.7600 318° Northwest  Level FlightAware Approximate
04:34PM 33.6147 -80.7921 318° Northwest  Level FlightAware Approximate
04:35PM 33.6440 -80.8242 318° Northwest  Level FlightAware Approximate
04:36PM 33.6734 -80.8563 318° Northwest  Level FlightAware Approximate
04:37PM 33.7028 -80.8884 318° Northwest  Level FlightAware Approximate
04:38PM 33.7342 -80.9176 323° Northwest  Level Estimated
04:39PM 33.7655 -80.9471 322° Northwest  Level FlightAware Approximate
04:40PM 33.7968 -80.9765 322° Northwest  Level FlightAware Approximate
04:41PM 33.8280 -81.0060 322° Northwest  Level FlightAware Approximate
04:42PM 33.8593 -81.0355 322° Northwest  Level FlightAware Approximate
04:43PM 33.8906 -81.0650 322° Northwest  Level FlightAware Approximate
04:44PM 33.9218 -81.0945 322° Northwest  Level FlightAware Approximate
04:45PM 33.9530 -81.1240 322° Northwest  Level FlightAware Approximate
04:46PM 33.9843 -81.1536 322° Northwest  Level FlightAware Approximate
04:47PM 34.0155 -81.1832 322° Northwest  Level FlightAware Approximate
04:48PM 34.0467 -81.2129 322° Northwest  Level FlightAware Approximate
04:49PM 34.0779 -81.2425 322° Northwest  Level FlightAware Approximate
04:50PM 34.1092 -81.2721 322° Northwest  Level FlightAware Approximate
04:51PM 34.1404 -81.3018 322° Northwest  Level FlightAware Approximate
04:52PM 34.1716 -81.3316 322° Northwest  Level FlightAware Approximate
04:53PM 34.2027 -81.3613 322° Northwest  Level FlightAware Approximate
04:54PM 34.2339 -81.3910 322° Northwest  Level FlightAware Approximate
04:55PM 34.2653 -81.4205 321° Northwest  Level Estimated
04:56PM 34.2964 -81.4504 322° Northwest  Level FlightAware Approximate
04:57PM 34.3275 -81.4803 322° Northwest  Level FlightAware Approximate
04:58PM 34.3586 -81.5102 322° Northwest  Level FlightAware Approximate
04:59PM 34.3896 -81.5402 322° Northwest  Level FlightAware Approximate
05:00PM 34.4207 -81.5702 321° Northwest  Level FlightAware Approximate
05:01PM 34.4518 -81.6002 321° Northwest  Level FlightAware Approximate
05:02PM 34.4828 -81.6302 321° Northwest  Level FlightAware Approximate
05:03PM 34.5139 -81.6603 321° Northwest  Level FlightAware Approximate
05:04PM 34.5449 -81.6903 321° Northwest  Level FlightAware Approximate
05:05PM 34.5760 -81.7204 321° Northwest  Level FlightAware Approximate
05:06PM 34.6070 -81.7505 321° Northwest  Level FlightAware Approximate
05:07PM 34.6380 -81.7807 321° Northwest  Level FlightAware Approximate
05:08PM 34.6690 -81.8108 321° Northwest  Level FlightAware Approximate
05:09PM 34.7000 -81.8410 321° Northwest  Level FlightAware Approximate
05:10PM 34.7310 -81.8712 321° Northwest  Level FlightAware Approximate
05:11PM 34.7620 -81.9015 321° Northwest  Level FlightAware Approximate
05:12PM 34.7930 -81.9317 321° Northwest  Level FlightAware Approximate
05:13PM 34.8240 -81.9620 321° Northwest  Level FlightAware Approximate
05:14PM 34.8549 -81.9923 321° Northwest  Level FlightAware Approximate
05:15PM 34.8859 -82.0226 321° Northwest  Level FlightAware Approximate
05:16PM 34.9168 -82.0529 321° Northwest  Level FlightAware Approximate
05:17PM 34.9484 -82.0824 331° Northwest  Level Estimated
05:18PM 34.9799 -82.1119 321° Northwest  Level Estimated
05:19PM 35.0113 -82.1415 322° Northwest  Level FlightAware Approximate
05:20PM 35.0427 -82.1713 322° Northwest  Level FlightAware Approximate
05:21PM 35.0741 -82.2010 322° Northwest  Level FlightAware Approximate
05:22PM 35.1054 -82.2307 322° Northwest  Level FlightAware Approximate
05:23PM 35.1370 -82.2603 North  Level Estimated
05:24PM 35.1685 -82.2898 321° Northwest  Level Estimated
05:25PM 35.2003 -82.3189 323° Northwest  Level FlightAware Approximate
05:26PM 35.2321 -82.3481 323° Northwest  Level FlightAware Approximate
05:27PM 35.2639 -82.3773 323° Northwest  Level FlightAware Approximate
05:28PM 35.2952 -82.4071 321° Northwest  Level Estimated
05:29PM 35.3265 -82.4370 321° Northwest  Level Estimated
05:30PM 35.3579 -82.4669 321° Northwest  Level Estimated
05:31PM 35.3892 -82.4969 321° Northwest  Level Estimated
05:32PM 35.4205 -82.5268 321° Northwest  Level Estimated
05:33PM 35.4333 -82.5333 321° Northwest  Level FlightAware Approximate
05:34PM 35.4362 -82.5418 321° Northwest  Level Estimated
05:35PM 35.4362 -82.5418 321° Northwest  Level Estimated
05:36PM 35.4362 -82.5418 321° Northwest  Level Estimated
05:37PM 35.4362 -82.5418 321° Northwest  Level Estimated